Terminal Aerodrome Forecast
Issued by NWS

Home | Current Version | Previous Version | Graphics & Text | Print | Product List | Glossary On
Versions: 1 2 3 4 5 6 7 8 9 10 11 12 13 14 15 16 17 18 19 20 21 22
000
FTUS43 KGRB 280520
TAFRHI
TAF
KRHI 280520Z 2806/2906 32007KT 6SM -DZ BR OVC006
     FM280800 36007KT 3SM -DZ BR OVC003
      TEMPO 2812/2814 6SM BR OVC008
     FM281400 03008KT P6SM SCT008 OVC015
     FM281700 03009KT P6SM BKN025
     FM282200 04007KT P6SM BKN035
     FM290100 03004KT P6SM SCT025=

USA.gov is the U.S. government's official web portal to all federal, state and local government web resources and services.